Time;durP1;ratioP1;P1;durP2;ratioP2;P2;SDS_P1;SDS_P2;PMS_P1;PMS_P2;Temp;Humidity;BMP_temperature;BMP_pressure;BME280_temperature;BME280_humidity;BME280_pressure;Samples;Min_cycle;Max_cycle;Signal;HPM_P1;HPM_P2
2022/12/24 00:01:15;;;;;;;3.23;2.00;;;27.30;57.40;;;;;;4054166;29;20531;-49
2022/12/24 00:03:38;;;;;;;4.03;1.92;;;27.30;57.40;;;;;;4056044;29;20116;-46
2022/12/24 00:06:05;;;;;;;2.47;1.50;;;27.30;57.60;;;;;;4051824;29;20626;-54
2022/12/24 00:08:27;;;;;;;4.47;1.70;;;27.40;57.80;;;;;;4051513;29;20126;-49
2022/12/24 00:10:51;;;;;;;4.85;1.65;;;27.40;58.00;;;;;;4056624;29;20884;-50
2022/12/24 00:13:14;;;;;;;3.88;1.80;;;27.40;57.70;;;;;;4055865;29;20120;-49
2022/12/24 00:15:36;;;;;;;4.20;1.85;;;27.50;57.50;;;;;;4044305;29;20072;-48
2022/12/24 00:17:58;;;;;;;2.78;1.40;;;27.50;57.30;;;;;;4056226;29;20532;-48
2022/12/24 00:20:21;;;;;;;2.03;1.52;;;27.50;57.20;;;;;;4056120;29;20043;-48
2022/12/24 00:22:43;;;;;;;2.75;1.60;;;27.60;57.00;;;;;;4055097;29;20032;-50
2022/12/24 00:25:06;;;;;;;3.10;1.52;;;27.60;56.90;;;;;;4059981;29;20488;-48
2022/12/24 00:27:28;;;;;;;2.03;1.10;;;27.70;56.90;;;;;;4057500;29;20525;-55
2022/12/24 00:29:51;;;;;;;1.98;1.40;;;27.70;56.80;;;;;;4055288;29;20812;-52
2022/12/24 00:32:13;;;;;;;2.03;1.38;;;27.80;56.70;;;;;;4058994;29;20634;-52
2022/12/24 00:34:39;;;;;;;2.58;1.40;;;27.80;56.60;;;;;;4059454;29;20120;-52
2022/12/24 00:37:02;;;;;;;1.63;1.27;;;27.80;56.40;;;;;;4061607;29;20111;-53
2022/12/24 00:39:24;;;;;;;2.30;1.50;;;27.80;56.20;;;;;;4057697;29;20040;-53
2022/12/24 00:41:47;;;;;;;2.40;1.40;;;27.80;56.30;;;;;;4057674;29;20284;-53
2022/12/24 00:44:10;;;;;;;1.33;1.23;;;27.90;56.20;;;;;;4054719;29;20560;-48
2022/12/24 00:46:34;;;;;;;1.73;1.30;;;27.90;56.10;;;;;;4049115;29;20044;-50
2022/12/24 00:48:56;;;;;;;2.10;1.52;;;27.90;56.00;;;;;;4051446;29;20440;-55
2022/12/24 00:51:19;;;;;;;2.03;1.40;;;27.90;55.90;;;;;;4047898;29;20104;-53
2022/12/24 00:53:42;;;;;;;1.70;1.33;;;27.90;55.80;;;;;;4056120;29;20554;-48
2022/12/24 00:56:04;;;;;;;2.83;1.20;;;27.90;55.90;;;;;;4044977;29;20028;-50
2022/12/24 00:58:27;;;;;;;2.10;1.40;;;28.00;55.80;;;;;;4056104;29;20142;-49
2022/12/24 01:00:49;;;;;;;1.30;1.10;;;28.00;55.70;;;;;;4060994;29;20039;-53
2022/12/24 01:03:12;;;;;;;1.50;1.40;;;28.00;55.70;;;;;;4062613;29;20500;-51
2022/12/24 01:05:34;;;;;;;1.25;1.13;;;28.00;55.70;;;;;;4060195;29;20131;-50
2022/12/24 01:07:56;;;;;;;1.08;0.98;;;28.10;55.70;;;;;;4062917;29;20110;-53
2022/12/24 01:10:20;;;;;;;1.13;0.80;;;28.10;55.70;;;;;;4058468;29;20495;-50
2022/12/24 01:12:43;;;;;;;3.75;1.15;;;28.10;55.70;;;;;;4052568;29;20516;-49
2022/12/24 01:15:06;;;;;;;1.05;0.95;;;28.10;55.60;;;;;;4056877;29;20044;-53
2022/12/24 01:17:30;;;;;;;1.50;1.20;;;28.10;55.60;;;;;;4054170;29;20043;-53
2022/12/24 01:19:53;;;;;;;1.33;1.00;;;28.20;55.50;;;;;;4056436;29;20297;-50
2022/12/24 01:22:15;;;;;;;2.33;1.40;;;28.20;55.50;;;;;;4062001;29;20040;-46
2022/12/24 01:24:39;;;;;;;2.00;1.40;;;28.20;55.40;;;;;;4068027;29;20316;-46
2022/12/24 01:27:02;;;;;;;1.38;1.20;;;28.30;55.40;;;;;;4059566;29;20036;-50
2022/12/24 01:29:24;;;;;;;1.67;1.25;;;28.30;56.10;;;;;;4065340;29;20464;-50
2022/12/24 01:31:46;;;;;;;2.92;1.30;;;28.30;55.30;;;;;;4060978;29;20135;-54
2022/12/24 01:34:09;;;;;;;2.00;1.40;;;28.30;55.40;;;;;;4058814;29;20036;-53
2022/12/24 01:36:31;;;;;;;3.40;1.40;;;28.30;55.40;;;;;;4065948;29;20050;-53
2022/12/24 01:38:54;;;;;;;1.58;1.25;;;28.40;55.50;;;;;;4064965;29;20040;-51
2022/12/24 01:44:26;;;;;;;2.03;1.58;;;28.40;55.40;;;;;;4058058;29;20047;-51
2022/12/24 01:47:12;;;;;;;1.80;1.38;;;28.50;55.40;;;;;;4060640;29;20047;-49
2022/12/24 01:49:36;;;;;;;1.45;1.30;;;28.50;55.30;;;;;;4057447;29;20082;-52
2022/12/24 01:52:04;;;;;;;2.47;1.30;;;28.60;55.30;;;;;;4054033;29;20074;-48
2022/12/24 01:54:43;;;;;;;1.77;1.38;;;28.60;55.40;;;;;;4062593;29;20044;-52
2022/12/24 01:57:21;;;;;;;1.60;1.45;;;28.60;55.20;;;;;;4057194;29;20266;-49
2022/12/24 01:59:49;;;;;;;1.77;1.42;;;28.70;55.20;;;;;;4056246;29;20043;-51
2022/12/24 02:02:12;;;;;;;1.75;1.27;;;28.70;55.90;;;;;;4054995;29;20104;-51
2022/12/24 02:05:00;;;;;;;2.28;1.48;;;28.80;55.40;;;;;;4053813;29;20052;-51
2022/12/24 02:07:23;;;;;;;1.50;1.40;;;28.80;55.40;;;;;;4062418;29;20082;-51
2022/12/24 02:09:46;;;;;;;2.00;1.77;;;28.80;55.30;;;;;;4064131;29;20059;-49
2022/12/24 02:12:09;;;;;;;1.83;1.42;;;28.90;55.40;;;;;;4057780;29;20104;-47
2022/12/24 02:14:32;;;;;;;1.50;1.40;;;28.90;55.40;;;;;;4062099;29;20059;-49
2022/12/24 02:17:03;;;;;;;1.77;1.67;;;28.90;55.40;;;;;;4048828;29;20489;-53
2022/12/24 02:19:52;;;;;;;3.90;2.20;;;28.90;55.30;;;;;;4060740;29;20546;-51
2022/12/24 02:22:18;;;;;;;2.78;2.22;;;28.90;55.40;;;;;;4058527;29;20054;-48
2022/12/24 02:25:08;;;;;;;3.10;2.10;;;29.00;55.40;;;;;;4053293;29;20050;-49
2022/12/24 02:27:56;;;;;;;2.35;1.92;;;29.10;55.50;;;;;;4050846;29;20045;-52
2022/12/24 02:30:28;;;;;;;3.97;2.20;;;29.10;55.50;;;;;;4052356;29;20757;-51
2022/12/24 02:33:13;;;;;;;3.13;2.42;;;29.20;55.60;;;;;;4059583;29;20039;-50
2022/12/24 02:35:52;;;;;;;2.50;2.20;;;29.20;55.50;;;;;;4059199;29;20044;-54
2022/12/24 02:38:30;;;;;;;3.10;2.30;;;29.30;55.50;;;;;;4056523;29;20041;-55
2022/12/24 02:41:11;;;;;;;2.47;2.03;;;29.30;55.40;;;;;;4051194;29;20036;-45
2022/12/24 02:43:38;;;;;;;3.60;2.10;;;29.40;55.30;;;;;;4050143;29;20412;-50
2022/12/24 02:46:07;;;;;;;3.10;2.30;;;29.40;55.30;;;;;;4050754;29;20118;-52
2022/12/24 02:48:30;;;;;;;2.85;2.00;;;29.40;55.20;;;;;;4037214;29;20340;-50
2022/12/24 02:51:07;;;;;;;2.30;2.03;;;29.40;55.20;;;;;;4057331;29;20063;-52
2022/12/24 02:53:30;;;;;;;3.15;1.90;;;29.50;55.90;;;;;;4043587;29;20059;-48
2022/12/24 02:55:55;;;;;;;2.15;1.63;;;29.50;55.00;;;;;;4054913;29;20047;-48
2022/12/24 02:58:41;;;;;;;2.20;1.80;;;29.60;55.10;;;;;;4056367;29;20032;-52
2022/12/24 03:01:18;;;;;;;4.03;2.10;;;29.60;55.00;;;;;;4056707;29;20028;-52
2022/12/24 03:04:00;;;;;;;2.60;2.08;;;29.60;55.00;;;;;;4059101;29;20244;-50
2022/12/24 03:06:40;;;;;;;2.60;2.08;;;29.60;54.90;;;;;;4061225;29;20082;-53
2022/12/24 03:09:21;;;;;;;2.13;1.80;;;29.70;55.00;;;;;;4050838;29;20043;-48
2022/12/24 03:11:52;;;;;;;2.53;1.70;;;29.70;54.90;;;;;;4043986;29;20056;-51
2022/12/24 03:14:16;;;;;;;2.33;1.90;;;29.70;54.80;;;;;;4052716;29;20044;-48
2022/12/24 03:16:38;;;;;;;2.20;2.00;;;29.80;54.90;;;;;;4042699;29;20074;-49
2022/12/24 03:19:01;;;;;;;2.90;1.90;;;29.80;54.70;;;;;;4059425;29;20096;-49
2022/12/24 03:21:34;;;;;;;3.20;1.90;;;29.80;54.90;;;;;;4062133;29;20077;-50
2022/12/24 03:23:57;;;;;;;1.88;1.73;;;29.80;54.60;;;;;;4058437;29;20108;-54
2022/12/24 03:26:20;;;;;;;2.28;1.90;;;29.80;54.50;;;;;;4058503;29;20044;-48
2022/12/24 03:28:43;;;;;;;2.55;2.17;;;29.90;54.50;;;;;;4058203;29;20083;-52
2022/12/24 03:31:08;;;;;;;2.50;1.80;;;29.90;54.50;;;;;;4056371;29;20059;-54
2022/12/24 03:33:31;;;;;;;3.35;2.15;;;29.90;54.30;;;;;;4057650;29;20040;-49
2022/12/24 03:35:53;;;;;;;2.55;1.83;;;29.90;54.30;;;;;;4045418;29;20059;-52
2022/12/24 03:38:16;;;;;;;2.45;1.73;;;30.00;54.30;;;;;;4064743;29;20036;-52
2022/12/24 03:40:38;;;;;;;2.70;1.90;;;30.00;54.10;;;;;;4064995;29;20075;-54
2022/12/24 03:43:00;;;;;;;2.47;1.83;;;30.00;54.00;;;;;;4059593;29;20040;-53
2022/12/24 03:45:23;;;;;;;1.80;1.65;;;30.10;54.00;;;;;;4065591;29;20119;-52
2022/12/24 03:47:45;;;;;;;2.28;1.77;;;30.10;53.80;;;;;;4047325;29;20517;-51
2022/12/24 03:50:08;;;;;;;3.25;1.83;;;30.10;53.80;;;;;;4065713;29;20044;-53
2022/12/24 03:52:31;;;;;;;2.95;2.03;;;30.10;53.70;;;;;;4056218;29;20114;-50
2022/12/24 03:54:53;;;;;;;2.38;1.83;;;30.20;53.70;;;;;;4065092;29;20617;-48
2022/12/24 03:57:15;;;;;;;2.28;1.55;;;30.20;53.60;;;;;;4064800;29;20051;-53
2022/12/24 03:59:38;;;;;;;2.47;1.88;;;30.20;53.60;;;;;;4065274;29;20507;-53
2022/12/24 04:02:00;;;;;;;2.20;1.70;;;30.20;53.30;;;;;;4064669;29;20043;-51
2022/12/24 04:04:23;;;;;;;3.45;1.80;;;30.30;53.40;;;;;;4053050;29;20060;-53
2022/12/24 04:06:45;;;;;;;1.85;1.52;;;30.30;53.40;;;;;;4059730;29;20113;-52
2022/12/24 04:09:08;;;;;;;1.95;1.60;;;30.30;53.30;;;;;;4065286;29;20040;-52
2022/12/24 04:11:31;;;;;;;1.52;1.42;;;30.30;53.10;;;;;;4059154;29;20091;-51
2022/12/24 04:13:53;;;;;;;;;;;30.40;53.20;;;;;;4066503;29;20040;-51
2022/12/24 04:16:16;;;;;;;1.95;1.50;;;30.40;53.20;;;;;;4069672;29;20372;-55
2022/12/24 04:18:39;;;;;;;2.15;1.40;;;30.50;53.00;;;;;;4063630;29;20102;-48
2022/12/24 04:21:01;;;;;;;;;;;30.50;53.00;;;;;;4073910;29;20114;-47
2022/12/24 04:23:25;;;;;;;1.60;1.40;;;30.60;52.90;;;;;;4056312;29;20260;-52
2022/12/24 04:25:48;;;;;;;3.38;1.38;;;30.60;52.90;;;;;;4066194;29;20040;-50
2022/12/24 04:28:10;;;;;;;1.75;1.50;;;30.70;52.80;;;;;;4069159;29;20528;-51
2022/12/24 04:30:33;;;;;;;1.40;1.27;;;30.70;52.90;;;;;;4062550;29;20408;-51
2022/12/24 04:32:55;;;;;;;2.42;1.58;;;30.80;52.90;;;;;;4063710;29;20397;-50
2022/12/24 04:35:17;;;;;;;1.85;1.20;;;30.80;52.70;;;;;;4059113;29;20040;-49
2022/12/24 04:37:40;;;;;;;1.48;1.38;;;30.90;52.70;;;;;;4063341;29;20548;-51
2022/12/24 04:40:02;;;;;;;1.38;1.17;;;31.00;52.60;;;;;;4047988;29;20044;-51
2022/12/24 04:42:25;;;;;;;1.00;1.00;;;31.00;52.50;;;;;;4060788;29;20040;-55
2022/12/24 04:44:47;;;;;;;2.53;1.30;;;31.10;52.50;;;;;;4062026;29;20046;-50
2022/12/24 04:47:10;;;;;;;1.42;1.27;;;31.10;52.30;;;;;;4056758;29;20036;-52
2022/12/24 04:49:32;;;;;;;1.65;1.20;;;31.20;52.30;;;;;;4060007;29;20044;-53
2022/12/24 04:51:54;;;;;;;1.67;1.17;;;31.30;52.30;;;;;;4054190;29;20493;-54
2022/12/24 04:54:17;;;;;;;1.52;1.20;;;31.40;52.20;;;;;;4059917;29;20039;-49
2022/12/24 04:56:39;;;;;;;1.42;1.02;;;31.40;52.00;;;;;;4060367;29;20031;-56
2022/12/24 04:59:02;;;;;;;1.42;1.15;;;31.50;51.90;;;;;;4059701;29;20585;-51
2022/12/24 05:01:27;;;;;;;1.48;1.27;;;31.50;51.70;;;;;;4048220;29;20033;-50
2022/12/24 05:03:50;;;;;;;1.67;1.10;;;31.60;51.70;;;;;;4060606;29;20899;-51
2022/12/24 05:06:13;;;;;;;;;;;31.60;51.60;;;;;;4057355;29;20044;-45
2022/12/24 05:08:35;;;;;;;1.92;1.40;;;31.70;51.60;;;;;;4054864;29;20031;-52
2022/12/24 05:10:58;;;;;;;1.35;1.08;;;31.80;51.40;;;;;;4061575;29;20129;-54
2022/12/24 05:13:21;;;;;;;1.10;1.00;;;31.80;51.30;;;;;;4056068;29;20092;-51
2022/12/24 05:15:44;;;;;;;1.50;1.20;;;31.90;51.20;;;;;;4049849;29;20036;-51
2022/12/24 05:18:07;;;;;;;1.40;1.00;;;31.90;51.10;;;;;;4040317;29;20136;-48
2022/12/24 05:20:29;;;;;;;1.10;1.00;;;32.00;51.00;;;;;;4054809;29;20043;-50
2022/12/24 05:28:19;;;;;;;1.48;1.20;;;32.20;50.70;;;;;;4057444;29;20064;-50
2022/12/24 05:30:41;;;;;;;1.20;0.88;;;32.20;50.60;;;;;;4049346;29;20741;-54
2022/12/24 05:33:03;;;;;;;1.63;1.17;;;32.30;50.50;;;;;;4051751;29;20437;-50
2022/12/24 05:35:26;;;;;;;1.42;0.90;;;32.30;50.40;;;;;;4035408;29;20128;-52
2022/12/24 05:37:48;;;;;;;1.42;0.93;;;32.40;50.30;;;;;;4053209;29;20035;-50
2022/12/24 05:40:11;;;;;;;1.43;1.13;;;32.40;50.10;;;;;;4050794;29;20755;-51
2022/12/24 05:42:33;;;;;;;2.17;0.97;;;32.50;50.10;;;;;;4049864;29;20130;-51
2022/12/24 05:44:56;;;;;;;1.10;1.00;;;32.60;50.10;;;;;;4052480;29;20103;-55
2022/12/24 05:47:18;;;;;;;0.85;0.85;;;32.60;50.00;;;;;;4055902;29;20036;-49
2022/12/24 05:49:41;;;;;;;1.73;0.98;;;32.60;49.70;;;;;;4044590;29;20067;-51
2022/12/24 05:52:03;;;;;;;1.88;1.13;;;32.70;49.70;;;;;;4055749;29;20059;-53
2022/12/24 05:54:25;;;;;;;0.95;0.93;;;32.80;49.60;;;;;;4053185;29;20107;-49
2022/12/24 05:56:48;;;;;;;0.85;0.80;;;32.80;49.50;;;;;;4055869;29;20048;-51
2022/12/24 05:59:10;;;;;;;1.75;1.20;;;32.80;49.40;;;;;;4054541;29;20037;-53
2022/12/24 06:01:33;;;;;;;1.20;1.10;;;32.90;49.40;;;;;;4045399;29;20044;-54
2022/12/24 06:03:56;;;;;;;1.20;1.03;;;32.90;49.40;;;;;;4057540;29;20039;-53
2022/12/24 06:06:25;;;;;;;1.35;1.08;;;32.90;49.30;;;;;;4058706;29;20044;-48
2022/12/24 06:08:48;;;;;;;1.95;1.10;;;33.00;49.40;;;;;;4059097;29;20071;-52
2022/12/24 06:11:13;;;;;;;1.35;1.20;;;33.00;49.30;;;;;;4058462;29;20067;-54
2022/12/24 06:13:36;;;;;;;0.80;0.80;;;33.10;49.30;;;;;;4057975;29;20032;-53
2022/12/24 06:16:00;;;;;;;0.98;0.90;;;33.10;49.30;;;;;;4054690;29;20412;-51
2022/12/24 06:18:22;;;;;;;1.40;0.90;;;33.10;49.30;;;;;;4049611;29;20040;-55
2022/12/24 06:20:45;;;;;;;1.02;0.93;;;33.10;49.20;;;;;;4056935;29;20088;-51
2022/12/24 06:23:07;;;;;;;1.17;1.00;;;33.20;49.10;;;;;;4051591;29;20198;-52
2022/12/24 06:25:30;;;;;;;1.33;1.17;;;33.20;49.10;;;;;;4055661;29;20103;-52
2022/12/24 06:27:52;;;;;;;1.20;0.85;;;33.30;49.00;;;;;;4051905;29;20493;-52
2022/12/24 06:30:15;;;;;;;2.03;0.98;;;33.30;49.00;;;;;;4049357;29;20047;-52
2022/12/24 06:32:37;;;;;;;1.73;1.10;;;33.30;48.90;;;;;;4056765;29;20050;-48
2022/12/24 06:34:59;;;;;;;2.75;1.00;;;33.40;48.90;;;;;;4059982;29;20680;-53
2022/12/24 06:37:22;;;;;;;1.53;0.93;;;33.30;48.80;;;;;;4051266;29;20079;-53
2022/12/24 06:39:45;;;;;;;1.03;0.90;;;33.40;48.90;;;;;;4052270;29;20315;-54
2022/12/24 06:42:07;;;;;;;0.85;0.80;;;33.30;48.80;;;;;;4064003;29;20487;-53
2022/12/24 06:44:30;;;;;;;1.20;0.77;;;33.30;48.90;;;;;;4048009;29;20392;-54
2022/12/24 06:46:52;;;;;;;1.05;0.90;;;33.40;48.90;;;;;;4054087;29;20055;-54
2022/12/24 06:49:15;;;;;;;1.55;0.95;;;33.30;48.80;;;;;;4054568;29;20048;-52
2022/12/24 06:51:37;;;;;;;1.52;1.10;;;33.40;48.80;;;;;;4055441;29;20050;-49
2022/12/24 06:54:00;;;;;;;1.45;1.00;;;33.40;48.70;;;;;;4052926;29;20047;-55
2022/12/24 06:56:22;;;;;;;1.00;0.88;;;33.50;48.60;;;;;;4053404;29;20127;-50
2022/12/24 06:58:45;;;;;;;1.10;0.93;;;33.50;48.50;;;;;;4053444;29;20044;-53
2022/12/24 07:01:11;;;;;;;1.08;0.93;;;33.50;48.50;;;;;;4056215;29;20040;-55
2022/12/24 07:03:34;;;;;;;0.90;0.82;;;33.60;48.50;;;;;;4052084;29;20028;-53
2022/12/24 07:05:56;;;;;;;;;;;33.60;48.30;;;;;;4050349;29;20116;-53
2022/12/24 07:08:18;;;;;;;1.20;0.98;;;33.60;48.40;;;;;;4051907;29;19912;-54
2022/12/24 07:10:41;;;;;;;0.75;0.70;;;33.60;48.40;;;;;;4049761;29;20064;-56
2022/12/24 07:13:03;;;;;;;1.20;0.83;;;33.50;48.40;;;;;;4048077;29;20119;-48
2022/12/24 07:15:26;;;;;;;1.52;1.05;;;33.50;48.40;;;;;;4064394;29;20054;-52
2022/12/24 07:17:48;;;;;;;2.10;0.90;;;33.50;48.50;;;;;;4053576;29;20107;-54
2022/12/24 07:20:13;;;;;;;2.53;0.97;;;33.50;48.50;;;;;;4056025;29;20048;-51
2022/12/24 07:22:36;;;;;;;1.23;0.80;;;33.50;48.50;;;;;;4054323;29;20040;-52
2022/12/24 07:24:58;;;;;;;0.80;0.70;;;33.50;48.50;;;;;;4060415;29;20044;-51
2022/12/24 07:27:21;;;;;;;1.25;0.98;;;33.50;48.60;;;;;;4065392;29;20780;-50
2022/12/24 07:29:43;;;;;;;1.27;0.88;;;33.50;48.60;;;;;;4057863;29;20040;-48
2022/12/24 07:32:06;;;;;;;1.38;0.98;;;33.40;48.50;;;;;;4048228;29;20505;-48
2022/12/24 07:34:28;;;;;;;0.93;0.83;;;33.40;48.50;;;;;;4048087;29;20052;-48
2022/12/24 07:36:51;;;;;;;1.23;1.00;;;33.40;48.60;;;;;;4051507;29;20761;-50
2022/12/24 07:39:13;;;;;;;1.25;0.93;;;33.40;48.60;;;;;;4050766;29;20046;-54
2022/12/24 07:41:35;;;;;;;2.47;1.00;;;33.30;48.60;;;;;;4053063;29;20043;-54
2022/12/24 07:43:58;;;;;;;0.83;0.83;;;33.20;48.60;;;;;;4055694;29;20048;-52
2022/12/24 07:46:20;;;;;;;1.80;1.00;;;33.20;48.70;;;;;;4042007;29;20071;-53
2022/12/24 07:48:43;;;;;;;1.45;0.90;;;33.10;48.30;;;;;;4054400;29;20049;-52
2022/12/24 07:51:05;;;;;;;1.73;0.80;;;33.00;48.30;;;;;;4060782;29;20197;-54
2022/12/24 07:53:29;;;;;;;1.02;0.60;;;32.90;48.30;;;;;;4060478;29;20050;-49
2022/12/24 07:55:51;;;;;;;;;;;32.90;48.50;;;;;;4063893;29;20044;-52
2022/12/24 07:58:13;;;;;;;0.80;0.65;;;32.80;48.40;;;;;;4060135;29;19915;-52
2022/12/24 08:00:36;;;;;;;1.43;0.87;;;32.80;48.50;;;;;;4060612;29;20050;-53
2022/12/24 08:02:59;;;;;;;1.33;0.80;;;32.80;48.50;;;;;;4065188;29;20286;-50
2022/12/24 08:05:22;;;;;;;2.10;0.80;;;32.80;48.50;;;;;;4064357;29;20040;-52
2022/12/24 08:07:44;;;;;;;0.80;0.70;;;32.80;48.60;;;;;;4063275;29;20044;-47
2022/12/24 08:10:07;;;;;;;0.70;0.70;;;32.70;48.40;;;;;;4061523;29;20036;-46
2022/12/24 08:12:30;;;;;;;0.80;0.80;;;32.70;48.40;;;;;;4054669;29;20048;-50
2022/12/24 08:14:52;;;;;;;0.98;0.73;;;32.60;48.40;;;;;;4060289;29;20044;-45
2022/12/24 08:17:14;;;;;;;1.55;0.90;;;32.70;48.40;;;;;;4061225;29;20079;-51
2022/12/24 08:19:37;;;;;;;0.98;0.60;;;32.80;48.60;;;;;;4058907;29;20032;-50
2022/12/24 08:21:59;;;;;;;0.73;0.65;;;32.70;48.60;;;;;;4052354;29;20131;-48
2022/12/24 08:24:22;;;;;;;1.20;0.85;;;32.70;48.60;;;;;;4055284;29;20067;-51
2022/12/24 08:26:44;;;;;;;2.00;1.10;;;32.70;48.40;;;;;;4054857;29;20784;-48
2022/12/24 08:29:07;;;;;;;1.38;0.98;;;32.70;48.40;;;;;;4064100;29;20047;-48
2022/12/24 08:31:35;;;;;;;2.40;1.30;;;32.70;48.20;;;;;;4056274;29;20058;-53
2022/12/24 08:33:57;;;;;;;1.50;0.88;;;32.60;47.90;;;;;;4053976;29;20051;-51
2022/12/24 08:36:19;;;;;;;1.10;1.00;;;32.60;47.70;;;;;;4053083;29;20051;-49
2022/12/24 08:38:42;;;;;;;1.70;1.30;;;32.60;47.70;;;;;;4052432;29;20180;-50
2022/12/24 08:41:04;;;;;;;1.13;0.98;;;32.60;47.70;;;;;;4055114;29;20036;-49
2022/12/24 08:43:27;;;;;;;1.10;0.90;;;32.60;47.40;;;;;;4053152;29;20381;-48
2022/12/24 08:45:50;;;;;;;2.08;1.40;;;32.60;47.60;;;;;;4058214;29;20785;-48
2022/12/24 08:48:12;;;;;;;1.90;1.30;;;32.50;47.60;;;;;;4053646;29;20042;-48
2022/12/24 08:50:35;;;;;;;1.20;1.10;;;32.50;47.80;;;;;;4060985;29;20094;-49
2022/12/24 08:52:59;;;;;;;1.50;1.10;;;32.50;47.90;;;;;;4055566;29;20048;-48
2022/12/24 08:55:21;;;;;;;3.67;1.67;;;32.50;47.90;;;;;;4054283;29;20075;-51
2022/12/24 08:57:43;;;;;;;2.08;1.45;;;32.50;48.10;;;;;;4062509;29;20787;-53
2022/12/24 09:00:10;;;;;;;2.90;1.40;;;32.50;48.20;;;;;;4063935;29;20046;-48
2022/12/24 09:02:33;;;;;;;2.83;1.35;;;32.40;48.20;;;;;;4052627;29;20119;-52
2022/12/24 09:04:55;;;;;;;4.40;1.50;;;32.40;48.20;;;;;;4059425;29;20040;-51
2022/12/24 09:07:18;;;;;;;2.55;1.45;;;32.40;48.30;;;;;;4062039;29;20046;-54
2022/12/24 09:09:40;;;;;;;2.22;1.50;;;32.30;48.10;;;;;;4044860;29;20059;-45
2022/12/24 09:12:05;;;;;;;1.45;1.10;;;32.30;48.40;;;;;;4055182;29;20051;-50
2022/12/24 09:14:27;;;;;;;4.15;1.60;;;32.30;48.30;;;;;;4051836;29;20123;-48
2022/12/24 09:16:50;;;;;;;2.47;1.27;;;32.30;48.50;;;;;;4055456;29;20044;-50
2022/12/24 09:19:12;;;;;;;2.00;1.58;;;32.30;48.50;;;;;;4056335;29;20048;-53
2022/12/24 09:21:35;;;;;;;2.97;1.15;;;32.30;48.80;;;;;;4051665;29;20511;-51
2022/12/24 09:23:59;;;;;;;1.85;1.17;;;32.20;49.40;;;;;;4050922;29;20040;-51
2022/12/24 09:26:26;;;;;;;2.80;1.52;;;32.20;49.00;;;;;;4042262;29;20036;-49
2022/12/24 09:28:49;;;;;;;3.15;1.50;;;32.20;49.50;;;;;;4062368;29;20638;-54
2022/12/24 09:31:13;;;;;;;1.70;1.50;;;32.20;49.10;;;;;;4054219;29;20044;-51
2022/12/24 09:33:37;;;;;;;2.90;1.80;;;32.10;49.10;;;;;;4041619;29;20043;-50
2022/12/24 09:35:59;;;;;;;4.00;1.55;;;32.10;49.20;;;;;;4050482;29;20107;-52
2022/12/24 09:38:23;;;;;;;2.20;1.65;;;32.10;49.30;;;;;;4059037;29;20048;-53
2022/12/24 09:40:46;;;;;;;1.63;1.27;;;32.10;49.50;;;;;;4054288;29;20110;-51
2022/12/24 09:43:20;;;;;;;3.50;1.90;;;32.10;49.50;;;;;;4055805;29;20037;-53
2022/12/24 09:45:50;;;;;;;4.28;1.80;;;32.10;49.70;;;;;;4052310;29;20044;-48
2022/12/24 09:48:19;;;;;;;2.33;1.73;;;32.00;49.60;;;;;;4042333;29;20054;-50
2022/12/24 09:50:53;;;;;;;2.50;1.60;;;32.00;49.80;;;;;;4054679;29;20055;-47
2022/12/24 09:54:04;;;;;;;2.10;1.83;;;32.00;49.70;;;;;;4057072;29;20048;-50
2022/12/24 09:56:47;;;;;;;3.53;1.92;;;32.00;50.00;;;;;;3979277;29;20581;-55
2022/12/24 09:59:25;;;;;;;2.13;1.73;;;32.00;50.20;;;;;;3991354;29;20042;-50
2022/12/24 10:01:50;;;;;;;2.90;1.90;;;31.90;50.20;;;;;;4042757;29;20035;-54
2022/12/24 10:04:17;;;;;;;2.35;1.83;;;31.90;50.70;;;;;;4055682;29;20047;-50
2022/12/24 10:07:00;;;;;;;2.85;1.70;;;31.90;50.10;;;;;;4059737;29;20043;-49
2022/12/24 10:09:59;;;;;;;2.13;1.80;;;31.90;50.30;;;;;;4055103;29;20094;-54
2022/12/24 10:12:40;;;;;;;2.58;1.90;;;31.90;50.40;;;;;;4058723;29;20048;-53
2022/12/24 10:15:27;;;;;;;2.70;1.73;;;31.90;50.50;;;;;;4053786;29;20049;-52
2022/12/24 10:18:02;;;;;;;1.88;1.60;;;31.90;50.50;;;;;;4054722;29;20035;-51
2022/12/24 10:20:37;;;;;;;1.58;1.40;;;31.80;50.60;;;;;;4054858;29;20040;-54
2022/12/24 10:23:13;;;;;;;2.10;1.70;;;31.80;50.70;;;;;;4053917;29;20492;-55
2022/12/24 10:25:42;;;;;;;1.80;1.50;;;31.80;50.80;;;;;;4052835;29;20040;-54
2022/12/24 10:28:14;;;;;;;2.03;1.70;;;31.80;50.80;;;;;;4056396;29;20040;-56
2022/12/24 10:30:36;;;;;;;1.55;1.45;;;31.80;50.80;;;;;;4058372;29;20043;-56
2022/12/24 10:32:59;;;;;;;1.88;1.60;;;31.80;50.90;;;;;;4056113;29;20040;-55
2022/12/24 10:35:29;;;;;;;1.70;1.57;;;31.70;50.90;;;;;;4057718;29;20116;-57
2022/12/24 10:37:52;;;;;;;2.00;1.80;;;31.70;50.90;;;;;;4058113;29;20377;-56
2022/12/24 10:40:29;;;;;;;1.67;1.58;;;31.70;51.00;;;;;;4049930;29;20052;-54
2022/12/24 10:42:51;;;;;;;2.45;1.90;;;31.70;51.00;;;;;;4036282;29;20032;-54
2022/12/24 10:45:19;;;;;;;1.88;1.63;;;31.70;51.10;;;;;;4051930;29;20424;-55
2022/12/24 10:47:44;;;;;;;2.20;1.38;;;31.70;51.10;;;;;;4052297;29;20079;-58
2022/12/24 10:50:30;;;;;;;1.85;1.58;;;31.70;51.10;;;;;;4057660;29;20148;-57
2022/12/24 10:53:00;;;;;;;2.38;1.55;;;31.70;51.30;;;;;;4055850;29;20044;-55
2022/12/24 10:55:23;;;;;;;2.40;1.48;;;31.70;51.20;;;;;;4055260;29;20536;-55
2022/12/24 10:57:57;;;;;;;1.90;1.50;;;31.70;51.90;;;;;;4056598;29;20038;-53
2022/12/24 11:00:20;;;;;;;;;;;31.70;51.30;;;;;;4061556;29;20412;-53
2022/12/24 11:02:43;;;;;;;2.28;1.75;;;31.60;51.40;;;;;;4055065;29;19941;-55
2022/12/24 11:05:29;;;;;;;2.00;1.65;;;31.60;51.40;;;;;;4052005;29;20048;-52
2022/12/24 11:08:04;;;;;;;3.58;2.05;;;31.60;51.50;;;;;;4053012;29;20036;-52
2022/12/24 11:10:26;;;;;;;3.35;1.95;;;31.50;51.80;;;;;;4055525;29;20131;-55
2022/12/24 11:12:49;;;;;;;3.08;1.92;;;31.40;52.00;;;;;;4051491;29;20511;-55
2022/12/24 11:15:34;;;;;;;3.38;1.98;;;31.40;52.30;;;;;;4051087;29;20072;-45
2022/12/24 11:18:03;;;;;;;3.42;1.92;;;31.40;52.50;;;;;;4053409;29;20393;-52
2022/12/24 11:20:30;;;;;;;2.78;1.70;;;31.30;52.50;;;;;;4054874;29;20048;-50
2022/12/24 11:22:53;;;;;;;2.05;1.83;;;31.30;52.70;;;;;;4047731;29;20036;-46
2022/12/24 11:25:32;;;;;;;4.07;2.20;;;31.30;52.80;;;;;;4044739;29;20279;-54
2022/12/24 11:27:55;;;;;;;2.75;2.10;;;31.30;52.90;;;;;;4049180;29;20473;-51
2022/12/24 11:30:31;;;;;;;2.22;1.67;;;31.20;52.90;;;;;;4051507;29;20126;-47
2022/12/24 11:33:03;;;;;;;2.40;1.80;;;31.20;52.90;;;;;;4050516;29;20123;-49
2022/12/24 11:35:26;;;;;;;2.10;1.73;;;31.20;53.00;;;;;;4051934;29;20044;-46
2022/12/24 11:38:09;;;;;;;2.00;1.80;;;31.20;53.00;;;;;;4054809;29;20124;-50
2022/12/24 11:40:41;;;;;;;2.83;1.90;;;31.20;53.10;;;;;;4047518;29;20044;-50
2022/12/24 11:43:05;;;;;;;2.65;2.00;;;31.20;53.10;;;;;;4054411;29;20110;-52
2022/12/24 11:45:29;;;;;;;2.67;1.88;;;31.10;53.20;;;;;;4054534;29;20040;-49
2022/12/24 11:47:53;;;;;;;2.33;1.85;;;31.10;53.30;;;;;;4043948;29;20041;-50
2022/12/24 11:50:36;;;;;;;2.70;2.25;;;31.10;53.40;;;;;;4053969;29;20436;-49
2022/12/24 11:53:10;;;;;;;2.65;2.00;;;31.10;53.60;;;;;;4061482;29;20505;-53
2022/12/24 11:55:55;;;;;;;2.75;2.00;;;31.10;53.80;;;;;;4061733;29;20051;-52
2022/12/24 11:58:46;;;;;;;5.18;1.90;;;31.10;53.80;;;;;;4051402;29;20040;-51
2022/12/24 12:01:33;;;;;;;1.90;1.70;;;31.00;53.90;;;;;;4047511;29;20044;-48
2022/12/24 12:04:01;;;;;;;5.13;2.38;;;31.00;54.10;;;;;;4054595;29;20055;-51
2022/12/24 12:06:33;;;;;;;3.55;2.30;;;31.00;54.20;;;;;;4057423;29;20051;-52
2022/12/24 12:09:00;;;;;;;3.35;2.40;;;31.00;54.30;;;;;;4058873;29;20059;-49
2022/12/24 12:11:25;;;;;;;2.90;2.15;;;31.00;54.40;;;;;;4055266;29;20052;-47
2022/12/24 12:13:48;;;;;;;2.90;2.35;;;30.90;54.50;;;;;;4052237;29;20044;-56
2022/12/24 12:16:25;;;;;;;3.63;2.13;;;30.90;54.60;;;;;;4057029;29;20043;-57
2022/12/24 12:18:59;;;;;;;4.85;2.10;;;30.90;54.70;;;;;;4059239;29;20290;-51
2022/12/24 12:21:26;;;;;;;3.63;2.47;;;30.90;54.90;;;;;;4058307;29;20080;-49
2022/12/24 12:24:33;;;;;;;3.13;2.60;;;30.90;55.00;;;;;;4054325;29;20345;-49
2022/12/24 12:27:42;;;;;;;5.28;2.85;;;30.80;54.80;;;;;;4054224;29;20040;-53
2022/12/24 12:30:13;;;;;;;4.00;3.10;;;30.80;54.90;;;;;;4024315;29;20444;-49
2022/12/24 12:32:59;;;;;;;6.15;3.00;;;30.80;54.90;;;;;;4043291;29;20048;-51
2022/12/24 12:35:42;;;;;;;3.53;2.90;;;30.80;55.00;;;;;;4043889;29;20120;-54
2022/12/24 12:38:11;;;;;;;5.45;3.25;;;30.80;55.10;;;;;;4052561;29;20099;-54
2022/12/24 12:40:39;;;;;;;4.38;3.10;;;30.70;55.20;;;;;;4053061;29;20054;-52
2022/12/24 12:43:39;;;;;;;4.53;2.90;;;30.70;55.30;;;;;;4053932;29;20078;-54
2022/12/24 12:46:13;;;;;;;4.60;3.45;;;30.70;55.40;;;;;;4054350;29;20035;-50
2022/12/24 12:48:56;;;;;;;4.97;3.13;;;30.60;55.50;;;;;;4056653;29;20044;-49
2022/12/24 12:51:41;;;;;;;5.40;3.55;;;30.60;55.40;;;;;;4042025;29;20063;-51
2022/12/24 12:54:21;;;;;;;4.65;3.30;;;30.60;55.50;;;;;;4057336;29;20036;-51